sensor_id;sensor_type;location;lat;lon;timestamp;pressure;altitude;pressure_sealevel;temperature;humidity
63700;BME280;49845;47.130;142.766;2023-02-28T00:01:59;100144.16;;;-1.99;65.91
63700;BME280;49845;47.130;142.766;2023-02-28T00:04:31;100136.56;;;-1.96;65.63
63700;BME280;49845;47.130;142.766;2023-02-28T00:07:01;100136.88;;;-1.87;65.42
63700;BME280;49845;47.130;142.766;2023-02-28T00:09:32;100143.81;;;-1.83;64.99
63700;BME280;49845;47.130;142.766;2023-02-28T00:12:03;100133.69;;;-1.80;64.95
63700;BME280;49845;47.130;142.766;2023-02-28T00:14:38;100135.59;;;-1.73;64.77
63700;BME280;49845;47.130;142.766;2023-02-28T00:17:08;100135.41;;;-1.79;64.39
63700;BME280;49845;47.130;142.766;2023-02-28T00:19:40;100123.78;;;-1.67;64.15
63700;BME280;49845;47.130;142.766;2023-02-28T00:22:11;100112.09;;;-1.59;63.80
63700;BME280;49845;47.130;142.766;2023-02-28T00:24:41;100089.19;;;-1.55;63.88
63700;BME280;49845;47.130;142.766;2023-02-28T00:27:12;100090.47;;;-1.39;63.52
63700;BME280;49845;47.130;142.766;2023-02-28T00:29:42;100098.41;;;-1.31;63.33
63700;BME280;49845;47.130;142.766;2023-02-28T00:32:13;100066.56;;;-1.38;63.05
63700;BME280;49845;47.130;142.766;2023-02-28T00:34:45;100084.41;;;-1.12;62.92
63700;BME280;49845;47.130;142.766;2023-02-28T00:37:16;100076.56;;;-0.87;63.14
63700;BME280;49845;47.130;142.766;2023-02-28T00:39:46;100071.81;;;-0.71;62.56
63700;BME280;49845;47.130;142.766;2023-02-28T00:42:17;100068.66;;;-0.61;61.92
63700;BME280;49845;47.130;142.766;2023-02-28T00:44:47;100053.13;;;-0.67;61.35
63700;BME280;49845;47.130;142.766;2023-02-28T00:47:21;100064.75;;;-0.47;61.77
63700;BME280;49845;47.130;142.766;2023-02-28T00:49:53;100040.06;;;-0.41;61.77
63700;BME280;49845;47.130;142.766;2023-02-28T00:52:24;100050.84;;;-0.20;61.58
63700;BME280;49845;47.130;142.766;2023-02-28T00:54:55;100001.69;;;-0.35;60.97
63700;BME280;49845;47.130;142.766;2023-02-28T00:57:25;100041.06;;;0.02;61.28
63700;BME280;49845;47.130;142.766;2023-02-28T00:59:56;100028.31;;;0.06;60.80
63700;BME280;49845;47.130;142.766;2023-02-28T01:02:26;100030.94;;;0.08;60.77
63700;BME280;49845;47.130;142.766;2023-02-28T01:04:58;100025.78;;;0.08;60.31
63700;BME280;49845;47.130;142.766;2023-02-28T01:07:29;100025.84;;;0.11;60.20
63700;BME280;49845;47.130;142.766;2023-02-28T01:10:00;100007.69;;;0.03;60.45
63700;BME280;49845;47.130;142.766;2023-02-28T01:12:30;100019.09;;;0.16;60.69
63700;BME280;49845;47.130;142.766;2023-02-28T01:15:01;100020.97;;;0.23;60.42
63700;BME280;49845;47.130;142.766;2023-02-28T01:17:31;100021.16;;;0.32;60.65
63700;BME280;49845;47.130;142.766;2023-02-28T01:20:13;100012.75;;;0.39;60.34
63700;BME280;49845;47.130;142.766;2023-02-28T01:22:43;100015.22;;;0.35;59.56
63700;BME280;49845;47.130;142.766;2023-02-28T01:25:15;99995.41;;;0.29;60.23
63700;BME280;49845;47.130;142.766;2023-02-28T01:27:48;99999.94;;;0.41;60.50
63700;BME280;49845;47.130;142.766;2023-02-28T01:30:19;99987.53;;;0.64;60.44
63700;BME280;49845;47.130;142.766;2023-02-28T01:32:52;99980.84;;;0.74;60.12
63700;BME280;49845;47.130;142.766;2023-02-28T01:35:25;99982.94;;;0.95;60.07
63700;BME280;49845;47.130;142.766;2023-02-28T01:37:55;99978.00;;;1.07;59.79
63700;BME280;49845;47.130;142.766;2023-02-28T01:40:42;99978.16;;;1.15;60.13
63700;BME280;49845;47.130;142.766;2023-02-28T01:43:21;99957.59;;;1.16;60.12
63700;BME280;49845;47.130;142.766;2023-02-28T01:45:53;99945.66;;;1.21;60.03
63700;BME280;49845;47.130;142.766;2023-02-28T01:48:26;99964.88;;;1.42;60.52
63700;BME280;49845;47.130;142.766;2023-02-28T01:51:03;99963.97;;;1.38;60.74
63700;BME280;49845;47.130;142.766;2023-02-28T01:53:38;99961.66;;;1.55;61.25
63700;BME280;49845;47.130;142.766;2023-02-28T01:56:14;99946.38;;;1.67;61.53
63700;BME280;49845;47.130;142.766;2023-02-28T01:58:49;99938.16;;;1.93;61.89
63700;BME280;49845;47.130;142.766;2023-02-28T02:01:21;99947.13;;;2.23;61.97
63700;BME280;49845;47.130;142.766;2023-02-28T02:03:55;99942.19;;;2.44;61.72
63700;BME280;49845;47.130;142.766;2023-02-28T02:06:30;99941.56;;;2.64;62.15
63700;BME280;49845;47.130;142.766;2023-02-28T02:09:04;99934.84;;;2.78;62.02
63700;BME280;49845;47.130;142.766;2023-02-28T02:11:34;99927.09;;;2.78;62.11
63700;BME280;49845;47.130;142.766;2023-02-28T02:14:20;99925.41;;;2.80;62.00
63700;BME280;49845;47.130;142.766;2023-02-28T02:17:05;99920.31;;;2.89;62.33
63700;BME280;49845;47.130;142.766;2023-02-28T02:20:10;99909.22;;;3.01;62.22
63700;BME280;49845;47.130;142.766;2023-02-28T02:23:16;99903.34;;;3.16;62.21
63700;BME280;49845;47.130;142.766;2023-02-28T02:26:00;99884.47;;;3.23;62.26
63700;BME280;49845;47.130;142.766;2023-02-28T02:28:58;99876.75;;;3.28;62.72
63700;BME280;49845;47.130;142.766;2023-02-28T02:31:54;99877.69;;;3.40;62.69
63700;BME280;49845;47.130;142.766;2023-02-28T02:34:43;99865.63;;;3.39;62.78
63700;BME280;49845;47.130;142.766;2023-02-28T02:37:27;99867.44;;;3.56;62.76
63700;BME280;49845;47.130;142.766;2023-02-28T02:40:07;99850.28;;;3.67;62.24
63700;BME280;49845;47.130;142.766;2023-02-28T02:42:45;99856.34;;;3.74;61.91
63700;BME280;49845;47.130;142.766;2023-02-28T02:45:24;99846.84;;;3.74;61.91
63700;BME280;49845;47.130;142.766;2023-02-28T02:47:57;99838.31;;;3.87;62.38
63700;BME280;49845;47.130;142.766;2023-02-28T02:50:34;99820.22;;;3.89;62.29
63700;BME280;49845;47.130;142.766;2023-02-28T02:53:09;99844.41;;;4.06;62.26
63700;BME280;49845;47.130;142.766;2023-02-28T02:55:44;99836.69;;;4.17;62.60
63700;BME280;49845;47.130;142.766;2023-02-28T02:58:24;99781.53;;;4.12;62.64
63700;BME280;49845;47.130;142.766;2023-02-28T03:00:58;99814.31;;;4.38;62.41
63700;BME280;49845;47.130;142.766;2023-02-28T03:03:31;99811.75;;;4.35;62.25
63700;BME280;49845;47.130;142.766;2023-02-28T03:06:05;99807.44;;;4.46;62.15
63700;BME280;49845;47.130;142.766;2023-02-28T03:08:38;99779.81;;;4.39;61.98
63700;BME280;49845;47.130;142.766;2023-02-28T03:11:13;99794.50;;;4.57;62.50
63700;BME280;49845;47.130;142.766;2023-02-28T03:14:05;99797.09;;;4.61;62.46
63700;BME280;49845;47.130;142.766;2023-02-28T03:16:54;99790.19;;;4.75;62.21
63700;BME280;49845;47.130;142.766;2023-02-28T03:19:36;99778.94;;;4.89;61.96
63700;BME280;49845;47.130;142.766;2023-02-28T03:22:22;99771.19;;;4.98;61.13
63700;BME280;49845;47.130;142.766;2023-02-28T03:24:59;99752.19;;;4.96;60.91
63700;BME280;49845;47.130;142.766;2023-02-28T03:27:38;99762.53;;;5.05;61.18
63700;BME280;49845;47.130;142.766;2023-02-28T03:30:14;99754.78;;;5.01;60.63
63700;BME280;49845;47.130;142.766;2023-02-28T03:32:52;99756.53;;;4.89;60.83
63700;BME280;49845;47.130;142.766;2023-02-28T03:35:27;99745.31;;;4.83;60.95
63700;BME280;49845;47.130;142.766;2023-02-28T03:38:06;99743.56;;;4.94;60.88
63700;BME280;49845;47.130;142.766;2023-02-28T03:40:39;99745.28;;;5.04;61.11
63700;BME280;49845;47.130;142.766;2023-02-28T03:43:17;99745.28;;;5.07;60.49
63700;BME280;49845;47.130;142.766;2023-02-28T03:45:50;99743.59;;;4.97;60.58
63700;BME280;49845;47.130;142.766;2023-02-28T03:48:25;99722.88;;;4.79;60.62
63700;BME280;49845;47.130;142.766;2023-02-28T03:50:59;99728.97;;;4.67;61.52
63700;BME280;49845;47.130;142.766;2023-02-28T03:53:35;99731.53;;;4.65;61.58
63700;BME280;49845;47.130;142.766;2023-02-28T03:56:09;99660.88;;;4.17;62.27
63700;BME280;49845;47.130;142.766;2023-02-28T03:58:46;99690.13;;;4.19;62.20
63700;BME280;49845;47.130;142.766;2023-02-28T04:01:21;99728.94;;;4.48;62.36
63700;BME280;49845;47.130;142.766;2023-02-28T04:03:55;99729.81;;;4.43;63.03
63700;BME280;49845;47.130;142.766;2023-02-28T04:06:25;99714.31;;;4.30;63.22
63700;BME280;49845;47.130;142.766;2023-02-28T04:08:58;99710.84;;;4.28;63.19
63700;BME280;49845;47.130;142.766;2023-02-28T04:11:33;99708.25;;;4.33;63.74
63700;BME280;49845;47.130;142.766;2023-02-28T04:14:05;99693.59;;;4.30;63.49
63700;BME280;49845;47.130;142.766;2023-02-28T04:16:38;99704.78;;;4.42;63.48
63700;BME280;49845;47.130;142.766;2023-02-28T04:19:10;99697.03;;;4.51;63.52
63700;BME280;49845;47.130;142.766;2023-02-28T04:21:43;99687.53;;;4.56;63.44
63700;BME280;49845;47.130;142.766;2023-02-28T04:24:17;99684.97;;;4.50;63.93
63700;BME280;49845;47.130;142.766;2023-02-28T04:26:49;99679.78;;;4.53;64.19
63700;BME280;49845;47.130;142.766;2023-02-28T04:29:21;99671.19;;;4.45;63.84
63700;BME280;49845;47.130;142.766;2023-02-28T04:31:52;99664.31;;;4.35;64.08
63700;BME280;49845;47.130;142.766;2023-02-28T04:34:23;99635.84;;;4.21;64.27
63700;BME280;49845;47.130;142.766;2023-02-28T04:36:56;99680.66;;;4.52;63.87
63700;BME280;49845;47.130;142.766;2023-02-28T04:39:56;99678.06;;;4.55;64.28
63700;BME280;49845;47.130;142.766;2023-02-28T04:42:27;99669.41;;;4.59;64.29
63700;BME280;49845;47.130;142.766;2023-02-28T04:45:03;99665.13;;;4.58;63.98
63700;BME280;49845;47.130;142.766;2023-02-28T04:47:34;99664.25;;;4.68;64.21
63700;BME280;49845;47.130;142.766;2023-02-28T04:50:05;99671.16;;;4.69;64.04
63700;BME280;49845;47.130;142.766;2023-02-28T04:52:36;99660.81;;;4.63;64.53
63700;BME280;49845;47.130;142.766;2023-02-28T04:55:09;99658.22;;;4.51;64.30
63700;BME280;49845;47.130;142.766;2023-02-28T04:57:39;99647.88;;;4.42;64.76
63700;BME280;49845;47.130;142.766;2023-02-28T05:00:11;99641.91;;;4.24;65.45
63700;BME280;49845;47.130;142.766;2023-02-28T05:02:46;99648.78;;;4.10;65.80
63700;BME280;49845;47.130;142.766;2023-02-28T05:05:17;99641.88;;;4.09;65.95
63700;BME280;49845;47.130;142.766;2023-02-28T05:07:48;99650.50;;;4.20;66.28
63700;BME280;49845;47.130;142.766;2023-02-28T05:10:20;99645.34;;;4.29;65.97
63700;BME280;49845;47.130;142.766;2023-02-28T05:12:51;99647.91;;;4.39;65.65
63700;BME280;49845;47.130;142.766;2023-02-28T05:15:22;99637.56;;;4.40;65.70
63700;BME280;49845;47.130;142.766;2023-02-28T05:17:52;99642.75;;;4.31;65.90
63700;BME280;49845;47.130;142.766;2023-02-28T05:20:23;99640.16;;;4.14;66.17
63700;BME280;49845;47.130;142.766;2023-02-28T05:22:53;99651.38;;;4.13;66.66
63700;BME280;49845;47.130;142.766;2023-02-28T05:25:26;99647.06;;;4.06;66.70
63700;BME280;49845;47.130;142.766;2023-02-28T05:27:56;99647.06;;;4.03;67.44
63700;BME280;49845;47.130;142.766;2023-02-28T05:30:29;99652.25;;;4.03;67.29
63700;BME280;49845;47.130;142.766;2023-02-28T05:33:00;99637.56;;;3.91;67.47
63700;BME280;49845;47.130;142.766;2023-02-28T05:35:30;99633.25;;;3.92;67.47
63700;BME280;49845;47.130;142.766;2023-02-28T05:38:01;99641.00;;;3.88;67.68
63700;BME280;49845;47.130;142.766;2023-02-28T05:40:33;99592.75;;;3.61;67.81
63700;BME280;49845;47.130;142.766;2023-02-28T05:43:03;99641.91;;;3.84;67.93
63700;BME280;49845;47.130;142.766;2023-02-28T05:45:34;99638.44;;;3.88;67.86
63700;BME280;49845;47.130;142.766;2023-02-28T05:48:06;99647.06;;;3.87;68.11
63700;BME280;49845;47.130;142.766;2023-02-28T05:50:36;99647.03;;;3.78;68.25
63700;BME280;49845;47.130;142.766;2023-02-28T05:53:07;99650.47;;;3.74;67.98
63700;BME280;49845;47.130;142.766;2023-02-28T05:55:39;99653.91;;;3.64;68.40
63700;BME280;49845;47.130;142.766;2023-02-28T05:58:09;99645.28;;;3.59;68.83
63700;BME280;49845;47.130;142.766;2023-02-28T06:00:40;99649.59;;;3.55;69.40
63700;BME280;49845;47.130;142.766;2023-02-28T06:03:10;99647.00;;;3.44;69.40
63700;BME280;49845;47.130;142.766;2023-02-28T06:05:41;99646.97;;;3.38;70.00
63700;BME280;49845;47.130;142.766;2023-02-28T06:08:11;99665.88;;;3.28;69.98
63700;BME280;49845;47.130;142.766;2023-02-28T06:10:43;99671.53;;;2.59;65.88
63700;BME280;49845;47.130;142.766;2023-02-28T06:13:14;99673.06;;;1.40;66.50
63700;BME280;49845;47.130;142.766;2023-02-28T06:15:44;99680.94;;;0.80;71.85
63700;BME280;49845;47.130;142.766;2023-02-28T06:18:14;99684.47;;;0.89;73.45
63700;BME280;49845;47.130;142.766;2023-02-28T06:20:45;99686.81;;;0.17;66.28
63700;BME280;49845;47.130;142.766;2023-02-28T06:23:22;99694.13;;;-0.55;68.26
63700;BME280;49845;47.130;142.766;2023-02-28T06:25:55;99691.13;;;-0.76;68.83
63700;BME280;49845;47.130;142.766;2023-02-28T06:28:26;99702.84;;;-0.89;69.02
63700;BME280;49845;47.130;142.766;2023-02-28T06:30:57;99639.69;;;-1.26;69.40
63700;BME280;49845;47.130;142.766;2023-02-28T06:33:27;99710.56;;;-0.88;69.15
63700;BME280;49845;47.130;142.766;2023-02-28T06:35:58;99696.34;;;-1.14;68.52
63700;BME280;49845;47.130;142.766;2023-02-28T06:38:29;99703.72;;;-1.28;68.78
63700;BME280;49845;47.130;142.766;2023-02-28T06:41:04;99705.78;;;-1.51;68.94
63700;BME280;49845;47.130;142.766;2023-02-28T06:43:37;99700.22;;;-1.69;69.18
63700;BME280;49845;47.130;142.766;2023-02-28T06:46:10;99713.47;;;-1.86;69.54
63700;BME280;49845;47.130;142.766;2023-02-28T06:48:43;99718.75;;;-2.13;70.31
63700;BME280;49845;47.130;142.766;2023-02-28T06:51:15;99718.75;;;-2.46;70.71
63700;BME280;49845;47.130;142.766;2023-02-28T06:53:46;99733.41;;;-2.71;72.08
63700;BME280;49845;47.130;142.766;2023-02-28T06:56:19;99716.06;;;-2.81;72.00
63700;BME280;49845;47.130;142.766;2023-02-28T06:58:50;99713.38;;;-2.86;72.82
63700;BME280;49845;47.130;142.766;2023-02-28T07:01:21;99721.00;;;-2.87;72.46
63700;BME280;49845;47.130;142.766;2023-02-28T07:03:52;99708.63;;;-3.04;72.99
63700;BME280;49845;47.130;142.766;2023-02-28T07:06:23;99729.06;;;-3.04;72.87
63700;BME280;49845;47.130;142.766;2023-02-28T07:08:54;99731.97;;;-3.20;73.83
63700;BME280;49845;47.130;142.766;2023-02-28T07:11:27;99707.56;;;-3.39;74.62
63700;BME280;49845;47.130;142.766;2023-02-28T07:13:58;99726.69;;;-3.26;74.77
63700;BME280;49845;47.130;142.766;2023-02-28T07:16:29;99728.53;;;-3.22;74.73
63700;BME280;49845;47.130;142.766;2023-02-28T07:18:59;99704.16;;;-3.39;75.05
63700;BME280;49845;47.130;142.766;2023-02-28T07:21:29;99716.19;;;-3.35;75.28
63700;BME280;49845;47.130;142.766;2023-02-28T07:24:01;99736.44;;;-3.41;75.62
63700;BME280;49845;47.130;142.766;2023-02-28T07:26:33;99713.69;;;-3.61;76.08
63700;BME280;49845;47.130;142.766;2023-02-28T07:29:04;99716.88;;;-3.68;76.40
63700;BME280;49845;47.130;142.766;2023-02-28T07:31:34;99718.50;;;-3.70;76.74
63700;BME280;49845;47.130;142.766;2023-02-28T07:34:05;99715.31;;;-3.63;77.29
63700;BME280;49845;47.130;142.766;2023-02-28T07:36:35;99677.94;;;-3.88;76.72
63700;BME280;49845;47.130;142.766;2023-02-28T07:39:06;99721.88;;;-3.71;77.40
63700;BME280;49845;47.130;142.766;2023-02-28T07:41:39;99710.66;;;-3.76;77.51
63700;BME280;49845;47.130;142.766;2023-02-28T07:44:11;99701.25;;;-3.77;77.79
63700;BME280;49845;47.130;142.766;2023-02-28T07:46:42;99711.56;;;-3.74;77.71
63700;BME280;49845;47.130;142.766;2023-02-28T07:49:12;99705.34;;;-3.82;78.00
63700;BME280;49845;47.130;142.766;2023-02-28T07:51:43;99716.28;;;-3.86;78.20
63700;BME280;49845;47.130;142.766;2023-02-28T07:54:13;99714.44;;;-3.91;78.63
63700;BME280;49845;47.130;142.766;2023-02-28T07:56:46;99715.88;;;-3.99;78.93
63700;BME280;49845;47.130;142.766;2023-02-28T07:59:16;99706.88;;;-4.13;79.39
63700;BME280;49845;47.130;142.766;2023-02-28T08:01:46;99694.75;;;-4.20;79.71
63700;BME280;49845;47.130;142.766;2023-02-28T08:04:19;99702.56;;;-4.16;80.07
63700;BME280;49845;47.130;142.766;2023-02-28T08:06:49;99710.28;;;-4.14;80.37
63700;BME280;49845;47.130;142.766;2023-02-28T08:09:21;99710.03;;;-4.20;80.43
63700;BME280;49845;47.130;142.766;2023-02-28T08:11:56;99707.66;;;-4.16;81.03
63700;BME280;49845;47.130;142.766;2023-02-28T08:14:30;99705.16;;;-4.14;80.92
63700;BME280;49845;47.130;142.766;2023-02-28T08:17:00;99713.53;;;-4.18;81.26
63700;BME280;49845;47.130;142.766;2023-02-28T08:19:31;99630.91;;;-4.73;81.63
63700;BME280;49845;47.130;142.766;2023-02-28T08:22:02;99666.25;;;-4.58;82.01
63700;BME280;49845;47.130;142.766;2023-02-28T08:24:36;99700.63;;;-4.47;82.36
63700;BME280;49845;47.130;142.766;2023-02-28T08:27:14;99683.28;;;-4.57;82.88
63700;BME280;49845;47.130;142.766;2023-02-28T08:29:45;99686.75;;;-4.55;82.91
63700;BME280;49845;47.130;142.766;2023-02-28T08:32:16;99694.78;;;-4.68;83.39
63700;BME280;49845;47.130;142.766;2023-02-28T08:34:56;99688.41;;;-4.81;83.66
63700;BME280;49845;47.130;142.766;2023-02-28T08:37:26;99700.88;;;-4.89;84.60
63700;BME280;49845;47.130;142.766;2023-02-28T08:39:59;99700.53;;;-4.98;84.48
63700;BME280;49845;47.130;142.766;2023-02-28T08:42:32;99696.00;;;-5.05;84.48
63700;BME280;49845;47.130;142.766;2023-02-28T08:45:04;99699.19;;;-5.11;84.41
63700;BME280;49845;47.130;142.766;2023-02-28T08:47:37;99703.44;;;-5.11;84.83
63700;BME280;49845;47.130;142.766;2023-02-28T08:50:09;99666.75;;;-5.39;84.62
63700;BME280;49845;47.130;142.766;2023-02-28T08:52:42;99704.59;;;-5.26;84.61
63700;BME280;49845;47.130;142.766;2023-02-28T08:55:16;99694.00;;;-5.36;85.12
63700;BME280;49845;47.130;142.766;2023-02-28T08:57:50;99698.34;;;-5.34;85.37
63700;BME280;49845;47.130;142.766;2023-02-28T09:00:22;99702.50;;;-5.36;85.52
63700;BME280;49845;47.130;142.766;2023-02-28T09:02:55;99709.22;;;-5.38;85.69
63700;BME280;49845;47.130;142.766;2023-02-28T09:05:25;99703.25;;;-5.38;85.83
63700;BME280;49845;47.130;142.766;2023-02-28T09:07:57;99699.72;;;-5.42;85.95
63700;BME280;49845;47.130;142.766;2023-02-28T09:10:28;99701.34;;;-5.44;85.97
63700;BME280;49845;47.130;142.766;2023-02-28T09:13:00;99696.94;;;-5.48;86.36
63700;BME280;49845;47.130;142.766;2023-02-28T09:15:31;99706.44;;;-5.44;86.38
63700;BME280;49845;47.130;142.766;2023-02-28T09:18:01;99710.59;;;-5.46;86.73
63700;BME280;49845;47.130;142.766;2023-02-28T09:20:32;99708.19;;;-5.43;86.61
63700;BME280;49845;47.130;142.766;2023-02-28T09:23:03;99713.16;;;-5.46;86.79
63700;BME280;49845;47.130;142.766;2023-02-28T09:25:34;99740.16;;;-5.50;86.92
63700;BME280;49845;47.130;142.766;2023-02-28T09:32:23;99729.69;;;-5.35;87.14
63700;BME280;49845;47.130;142.766;2023-02-28T09:35:28;99744.66;;;-5.22;87.17
63700;BME280;49845;47.130;142.766;2023-02-28T09:38:03;99738.63;;;-5.24;87.00
63700;BME280;49845;47.130;142.766;2023-02-28T09:40:47;99728.63;;;-5.42;86.98
63700;BME280;49845;47.130;142.766;2023-02-28T09:43:21;99760.03;;;-5.41;87.71
63700;BME280;49845;47.130;142.766;2023-02-28T09:45:56;99747.19;;;-5.44;88.11
63700;BME280;49845;47.130;142.766;2023-02-28T09:48:36;99734.19;;;-5.50;88.37
63700;BME280;49845;47.130;142.766;2023-02-28T09:51:20;99703.16;;;-5.63;88.63
63700;BME280;49845;47.130;142.766;2023-02-28T09:54:03;99750.19;;;-5.32;88.80
63700;BME280;49845;47.130;142.766;2023-02-28T09:56:56;99742.50;;;-5.33;88.55
63700;BME280;49845;47.130;142.766;2023-02-28T10:00:07;99706.88;;;-5.54;88.85
63700;BME280;49845;47.130;142.766;2023-02-28T10:05:47;99722.88;;;-5.36;89.04
63700;BME280;49845;47.130;142.766;2023-02-28T10:08:25;99745.56;;;-5.20;88.92
63700;BME280;49845;47.130;142.766;2023-02-28T10:11:11;99739.69;;;-5.18;88.95
63700;BME280;49845;47.130;142.766;2023-02-28T10:13:53;99738.84;;;-5.17;88.90
63700;BME280;49845;47.130;142.766;2023-02-28T10:16:31;99726.94;;;-5.18;88.91
63700;BME280;49845;47.130;142.766;2023-02-28T10:19:05;99719.97;;;-5.23;89.38
63700;BME280;49845;47.130;142.766;2023-02-28T10:21:43;99722.59;;;-5.21;89.27
63700;BME280;49845;47.130;142.766;2023-02-28T10:24:23;99723.81;;;-5.11;89.26
63700;BME280;49845;47.130;142.766;2023-02-28T10:27:06;99654.59;;;-5.46;89.26
63700;BME280;49845;47.130;142.766;2023-02-28T10:29:46;99696.03;;;-5.28;89.00
63700;BME280;49845;47.130;142.766;2023-02-28T10:32:34;99703.59;;;-5.29;89.55
63700;BME280;49845;47.130;142.766;2023-02-28T10:35:15;99713.16;;;-5.24;89.71
63700;BME280;49845;47.130;142.766;2023-02-28T10:37:57;99703.00;;;-5.22;89.95
63700;BME280;49845;47.130;142.766;2023-02-28T10:40:34;99699.59;;;-5.23;89.96
63700;BME280;49845;47.130;142.766;2023-02-28T10:43:26;99602.19;;;-5.86;89.96
63700;BME280;49845;47.130;142.766;2023-02-28T10:46:04;99700.06;;;-5.33;90.18
63700;BME280;49845;47.130;142.766;2023-02-28T10:48:41;99706.88;;;-5.32;90.37
63700;BME280;49845;47.130;142.766;2023-02-28T10:51:14;99686.97;;;-5.42;90.46
63700;BME280;49845;47.130;142.766;2023-02-28T10:53:51;99692.06;;;-5.42;90.76
63700;BME280;49845;47.130;142.766;2023-02-28T10:56:30;99675.06;;;-5.43;91.34
63700;BME280;49845;47.130;142.766;2023-02-28T10:59:20;99678.44;;;-5.44;91.39
63700;BME280;49845;47.130;142.766;2023-02-28T11:01:54;99683.53;;;-5.44;91.57
63700;BME280;49845;47.130;142.766;2023-02-28T11:04:36;99648.09;;;-5.60;91.64
63700;BME280;49845;47.130;142.766;2023-02-28T11:07:19;99668.13;;;-5.47;91.69
63700;BME280;49845;47.130;142.766;2023-02-28T11:09:55;99663.09;;;-5.46;91.69
63700;BME280;49845;47.130;142.766;2023-02-28T11:12:28;99662.22;;;-5.46;91.68
63700;BME280;49845;47.130;142.766;2023-02-28T11:15:05;99658.06;;;-5.44;91.66
63700;BME280;49845;47.130;142.766;2023-02-28T11:17:53;99657.94;;;-5.47;91.85
63700;BME280;49845;47.130;142.766;2023-02-28T11:20:26;99598.91;;;-5.82;91.68
63700;BME280;49845;47.130;142.766;2023-02-28T11:22:59;99670.72;;;-5.46;91.88
63700;BME280;49845;47.130;142.766;2023-02-28T11:25:46;99673.22;;;-5.47;91.93
63700;BME280;49845;47.130;142.766;2023-02-28T11:28:28;99674.06;;;-5.47;91.69
63700;BME280;49845;47.130;142.766;2023-02-28T11:31:04;99669.72;;;-5.49;92.08
63700;BME280;49845;47.130;142.766;2023-02-28T11:33:42;99678.13;;;-5.52;92.07
63700;BME280;49845;47.130;142.766;2023-02-28T11:36:17;99678.94;;;-5.53;92.40
63700;BME280;49845;47.130;142.766;2023-02-28T11:38:48;99633.03;;;-5.77;92.58
63700;BME280;49845;47.130;142.766;2023-02-28T11:41:40;99668.13;;;-5.47;92.52
63700;BME280;49845;47.130;142.766;2023-02-28T11:45:22;99669.88;;;-5.46;92.34
63700;BME280;49845;47.130;142.766;2023-02-28T11:48:24;99669.88;;;-5.46;92.32
63700;BME280;49845;47.130;142.766;2023-02-28T11:51:06;99668.97;;;-5.47;92.37
63700;BME280;49845;47.130;142.766;2023-02-28T11:54:02;99647.28;;;-5.59;92.76
63700;BME280;49845;47.130;142.766;2023-02-28T11:56:41;99671.22;;;-5.54;92.60
63700;BME280;49845;47.130;142.766;2023-02-28T11:59:30;99664.06;;;-5.65;92.86
63700;BME280;49845;47.130;142.766;2023-02-28T12:02:32;99652.25;;;-5.63;93.56
63700;BME280;49845;47.130;142.766;2023-02-28T12:05:37;99662.81;;;-5.53;93.29
63700;BME280;49845;47.130;142.766;2023-02-28T12:08:52;99613.28;;;-5.84;93.18
63700;BME280;49845;47.130;142.766;2023-02-28T12:12:07;99662.81;;;-5.53;93.67
63700;BME280;49845;47.130;142.766;2023-02-28T12:15:05;99654.25;;;-5.55;93.57
63700;BME280;49845;47.130;142.766;2023-02-28T12:18:07;99635.03;;;-5.70;93.79
63700;BME280;49845;47.130;142.766;2023-02-28T12:20:57;99647.19;;;-5.63;93.60
63700;BME280;49845;47.130;142.766;2023-02-28T12:23:47;99648.69;;;-5.68;93.84
63700;BME280;49845;47.130;142.766;2023-02-28T12:26:24;99638.38;;;-5.71;94.34
63700;BME280;49845;47.130;142.766;2023-02-28T12:29:12;99634.91;;;-5.73;94.32
63700;BME280;49845;47.130;142.766;2023-02-28T12:31:47;99638.28;;;-5.74;94.87
63700;BME280;49845;47.130;142.766;2023-02-28T12:34:22;99635.66;;;-5.75;95.02
63700;BME280;49845;47.130;142.766;2023-02-28T12:36:56;99638.22;;;-5.75;95.18
63700;BME280;49845;47.130;142.766;2023-02-28T12:39:32;99632.00;;;-5.82;95.54
63700;BME280;49845;47.130;142.766;2023-02-28T12:42:22;99626.22;;;-5.78;95.56
63700;BME280;49845;47.130;142.766;2023-02-28T12:44:59;99646.81;;;-5.72;95.25
63700;BME280;49845;47.130;142.766;2023-02-28T12:47:31;99638.28;;;-5.74;95.43
63700;BME280;49845;47.130;142.766;2023-02-28T12:50:05;99603.56;;;-5.94;95.60
63700;BME280;49845;47.130;142.766;2023-02-28T12:52:51;99642.66;;;-5.70;95.32
63700;BME280;49845;47.130;142.766;2023-02-28T12:55:33;99640.09;;;-5.70;95.47
63700;BME280;49845;47.130;142.766;2023-02-28T12:58:13;99646.97;;;-5.69;95.34
63700;BME280;49845;47.130;142.766;2023-02-28T13:01:16;99642.66;;;-5.70;95.17
63700;BME280;49845;47.130;142.766;2023-02-28T13:04:27;99540.97;;;-6.34;95.47
63700;BME280;49845;47.130;142.766;2023-02-28T13:10:07;99605.66;;;-5.84;95.63
63700;BME280;49845;47.130;142.766;2023-02-28T13:12:48;99631.53;;;-5.72;95.26
63700;BME280;49845;47.130;142.766;2023-02-28T13:15:23;99648.09;;;-5.60;95.39
63700;BME280;49845;47.130;142.766;2023-02-28T13:17:59;99643.84;;;-5.61;95.64
63700;BME280;49845;47.130;142.766;2023-02-28T13:20:34;99638.38;;;-5.71;95.18
63700;BME280;49845;47.130;142.766;2023-02-28T13:26:15;99642.19;;;-5.59;95.39
63700;BME280;49845;47.130;142.766;2023-02-28T13:29:21;99635.28;;;-5.64;95.46
63700;BME280;49845;47.130;142.766;2023-02-28T13:32:31;99639.34;;;-5.67;95.35
63700;BME280;49845;47.130;142.766;2023-02-28T13:35:42;99637.56;;;-5.70;95.79
63700;BME280;49845;47.130;142.766;2023-02-28T13:38:35;99644.22;;;-5.73;95.65
63700;BME280;49845;47.130;142.766;2023-02-28T13:41:40;99629.06;;;-5.70;96.02
63700;BME280;49845;47.130;142.766;2023-02-28T13:48:02;99628.09;;;-5.74;95.84
63700;BME280;49845;47.130;142.766;2023-02-28T13:50:37;99617.66;;;-5.80;96.26